SVA139 OERK-ENGM
Flight info
| Callsign | SVA139 |
|---|---|
| Flight time | 6h 34m |
| Altitude | 32000 |
| Route | LONIB T503 OVANO L768 MODAD/N0460F340 B544 ALE M861 NISAP UM861 BUK UL621 ODERO DCT VAKIS DCT URELA DCT BOKDO DCT HATIP/N0457F360 DCT GOSAK N133 KARTI Y41 LARMA DCT GELMA DCT LUNIP |
| Aircraft | A21N/M-SDE2E3FGHIRWXY/LB1 |
Departure
| Time | 2026-04-30 12:12 |
|---|---|
| Airport | King Khalid International Airport (OERK) |
Arrival
| Time | 2026-04-30 18:46 |
|---|---|
| Airport | Oslo-Gardermoen International Airport (ENGM) |
| Time | Latitude | Longitude | Altitude | Speed | Heading |
|---|---|---|---|---|---|
| 2026-04-30 11:42 | 24.96053 | 46.70333 | 2035 ft | 0 kts | 307° |
| 2026-04-30 12:02 | 24.96041 | 46.70352 | 2039 ft | 4 kts | 302° |
| 2026-04-30 12:02 | 24.96028 | 46.70378 | 2043 ft | 4 kts | 289° |
| 2026-04-30 12:02 | 24.96024 | 46.70406 | 2041 ft | 4 kts | 260° |
| 2026-04-30 12:02 | 24.96032 | 46.70428 | 2035 ft | 4 kts | 241° |
| 2026-04-30 12:03 | 24.96045 | 46.70454 | 2040 ft | 4 kts | 240° |
| 2026-04-30 12:03 | 24.96072 | 46.70505 | 2039 ft | 4 kts | 240° |
| 2026-04-30 12:03 | 24.96084 | 46.70529 | 2039 ft | 4 kts | 259° |
| 2026-04-30 12:04 | 24.96079 | 46.70553 | 2045 ft | 5 kts | 312° |
| 2026-04-30 12:04 | 24.96059 | 46.70571 | 2035 ft | 5 kts | 330° |
| 2026-04-30 12:04 | 24.96040 | 46.70582 | 2035 ft | 2 kts | 330° |
| 2026-04-30 12:07 | 24.96041 | 46.70581 | 2039 ft | 1 kts | 330° |
| 2026-04-30 12:08 | 24.96062 | 46.70568 | 2043 ft | 10 kts | 329° |
| 2026-04-30 12:08 | 24.96143 | 46.70516 | 2044 ft | 14 kts | 330° |
| 2026-04-30 12:08 | 24.96229 | 46.70462 | 2042 ft | 15 kts | 330° |
| 2026-04-30 12:08 | 24.96320 | 46.70404 | 2038 ft | 16 kts | 336° |
| 2026-04-30 12:09 | 24.96400 | 46.70462 | 2043 ft | 16 kts | 59° |
| 2026-04-30 12:09 | 24.96456 | 46.70568 | 2036 ft | 16 kts | 59° |
| 2026-04-30 12:09 | 24.96553 | 46.70574 | 2043 ft | 17 kts | 329° |
| 2026-04-30 12:09 | 24.96658 | 46.70507 | 2035 ft | 18 kts | 330° |
| 2026-04-30 12:10 | 24.96771 | 46.70436 | 2038 ft | 19 kts | 330° |
| 2026-04-30 12:10 | 24.96889 | 46.70363 | 2036 ft | 19 kts | 330° |
| 2026-04-30 12:10 | 24.96998 | 46.70314 | 2034 ft | 15 kts | 20° |
| 2026-04-30 12:10 | 24.97062 | 46.70401 | 2042 ft | 15 kts | 59° |
| 2026-04-30 12:11 | 24.97114 | 46.70500 | 2037 ft | 15 kts | 67° |
| 2026-04-30 12:11 | 24.97027 | 46.70618 | 2036 ft | 47 kts | 152° |
| 2026-04-30 12:11 | 24.96530 | 46.70930 | 2035 ft | 115 kts | 149° |
| 2026-04-30 12:11 | 24.95676 | 46.71473 | 2040 ft | 159 kts | 150° |
| 2026-04-30 12:12 | 24.94592 | 46.72158 | 2153 ft | 195 kts | 149° |
| 2026-04-30 12:12 | 24.93436 | 46.72914 | 2765 ft | 192 kts | 140° |
| 2026-04-30 12:12 | 24.92440 | 46.73891 | 3259 ft | 197 kts | 135° |
| 2026-04-30 12:12 | 24.91384 | 46.74943 | 3561 ft | 212 kts | 137° |
| 2026-04-30 12:13 | 24.90281 | 46.76101 | 3889 ft | 226 kts | 123° |
| 2026-04-30 12:13 | 24.89708 | 46.77733 | 4160 ft | 234 kts | 92° |
| 2026-04-30 12:13 | 24.89989 | 46.79509 | 4461 ft | 245 kts | 61° |
| 2026-04-30 12:13 | 24.91163 | 46.80914 | 4682 ft | 262 kts | 30° |
| 2026-04-30 12:14 | 24.92938 | 46.81404 | 5042 ft | 272 kts | 357° |
| 2026-04-30 12:14 | 24.94744 | 46.80750 | 5575 ft | 279 kts | 329° |
| 2026-04-30 12:14 | 24.96343 | 46.79521 | 6167 ft | 282 kts | 323° |
| 2026-04-30 12:14 | 24.97798 | 46.78054 | 6755 ft | 285 kts | 316° |
| 2026-04-30 12:15 | 24.99201 | 46.76487 | 7341 ft | 287 kts | 316° |
| 2026-04-30 12:15 | 25.00606 | 46.74904 | 7890 ft | 291 kts | 316° |
| 2026-04-30 12:15 | 25.02034 | 46.73307 | 8464 ft | 294 kts | 316° |
| 2026-04-30 12:15 | 25.03475 | 46.71702 | 9047 ft | 296 kts | 316° |
| 2026-04-30 12:16 | 25.04911 | 46.70104 | 9593 ft | 297 kts | 315° |
| 2026-04-30 12:16 | 25.06375 | 46.68477 | 10174 ft | 301 kts | 315° |
| 2026-04-30 12:16 | 25.07879 | 46.66806 | 10486 ft | 314 kts | 315° |
| 2026-04-30 12:16 | 25.09457 | 46.65052 | 10729 ft | 330 kts | 315° |
| 2026-04-30 12:17 | 25.12848 | 46.61285 | 11177 ft | 361 kts | 313° |
| 2026-04-30 12:17 | 25.14650 | 46.59276 | 11392 ft | 376 kts | 312° |
| 2026-04-30 12:17 | 25.16517 | 46.57195 | 11704 ft | 385 kts | 311° |
| 2026-04-30 12:18 | 25.18403 | 46.55095 | 12358 ft | 384 kts | 311° |
| 2026-04-30 12:18 | 25.20277 | 46.53005 | 13033 ft | 381 kts | 311° |
| 2026-04-30 12:18 | 25.22128 | 46.50949 | 13889 ft | 374 kts | 311° |
| 2026-04-30 12:18 | 25.23959 | 46.48909 | 14483 ft | 376 kts | 310° |
| 2026-04-30 12:19 | 25.25811 | 46.46840 | 14794 ft | 385 kts | 310° |
| 2026-04-30 12:19 | 25.27698 | 46.44736 | 15449 ft | 381 kts | 310° |
| 2026-04-30 12:19 | 25.29544 | 46.42681 | 16270 ft | 374 kts | 310° |
| 2026-04-30 12:19 | 25.31355 | 46.40659 | 17125 ft | 365 kts | 310° |
| 2026-04-30 12:20 | 25.33101 | 46.38712 | 17873 ft | 360 kts | 309° |
| 2026-04-30 12:20 | 25.34893 | 46.36706 | 18419 ft | 361 kts | 309° |
| 2026-04-30 12:20 | 25.36663 | 46.34723 | 18903 ft | 364 kts | 309° |
| 2026-04-30 12:20 | 25.38439 | 46.32722 | 19376 ft | 365 kts | 309° |
| 2026-04-30 12:21 | 25.40226 | 46.30711 | 19840 ft | 367 kts | 309° |
| 2026-04-30 12:21 | 25.41995 | 46.28717 | 20279 ft | 370 kts | 309° |
| 2026-04-30 12:21 | 25.43802 | 46.26678 | 20718 ft | 372 kts | 309° |
| 2026-04-30 12:21 | 25.45622 | 46.24631 | 21152 ft | 374 kts | 309° |
| 2026-04-30 12:22 | 25.47451 | 46.22576 | 21614 ft | 375 kts | 309° |
| 2026-04-30 12:22 | 25.49291 | 46.20509 | 22038 ft | 378 kts | 309° |
| 2026-04-30 12:22 | 25.51142 | 46.18428 | 22462 ft | 380 kts | 308° |
| 2026-04-30 12:22 | 25.52996 | 46.16341 | 22872 ft | 382 kts | 308° |
| 2026-04-30 12:23 | 25.54873 | 46.14239 | 23276 ft | 384 kts | 309° |
| 2026-04-30 12:23 | 25.56755 | 46.12137 | 23681 ft | 385 kts | 308° |
| 2026-04-30 12:23 | 25.58647 | 46.10021 | 24060 ft | 387 kts | 308° |
| 2026-04-30 12:23 | 25.60541 | 46.07891 | 24444 ft | 389 kts | 308° |
| 2026-04-30 12:24 | 25.62438 | 46.05752 | 24807 ft | 390 kts | 308° |
| 2026-04-30 12:24 | 25.64349 | 46.03599 | 25153 ft | 392 kts | 308° |
| 2026-04-30 12:24 | 25.66264 | 46.01442 | 25498 ft | 394 kts | 308° |
| 2026-04-30 12:24 | 25.68190 | 45.99278 | 25833 ft | 395 kts | 307° |
| 2026-04-30 12:25 | 25.70120 | 45.97103 | 26177 ft | 396 kts | 307° |
| 2026-04-30 12:25 | 25.72058 | 45.94916 | 26501 ft | 398 kts | 307° |
| 2026-04-30 12:25 | 25.74002 | 45.92721 | 26799 ft | 399 kts | 307° |
| 2026-04-30 12:25 | 25.75955 | 45.90522 | 27090 ft | 401 kts | 307° |
| 2026-04-30 12:26 | 25.77915 | 45.88309 | 27395 ft | 402 kts | 306° |
| 2026-04-30 12:26 | 25.79880 | 45.86092 | 27588 ft | 405 kts | 306° |
| 2026-04-30 12:26 | 25.81862 | 45.83844 | 27705 ft | 411 kts | 306° |
| 2026-04-30 12:26 | 25.83881 | 45.81571 | 27837 ft | 416 kts | 307° |
| 2026-04-30 12:27 | 25.85900 | 45.79299 | 27995 ft | 420 kts | 307° |
| 2026-04-30 12:27 | 25.87979 | 45.76948 | 28196 ft | 423 kts | 306° |
| 2026-04-30 12:27 | 25.90041 | 45.74613 | 28395 ft | 425 kts | 306° |
| 2026-04-30 12:27 | 25.92093 | 45.72286 | 28595 ft | 428 kts | 306° |
| 2026-04-30 12:28 | 25.94180 | 45.69919 | 28800 ft | 430 kts | 306° |
| 2026-04-30 12:28 | 25.96282 | 45.67536 | 29000 ft | 432 kts | 306° |
| 2026-04-30 12:28 | 25.98390 | 45.65142 | 29202 ft | 434 kts | 306° |
| 2026-04-30 12:28 | 26.00505 | 45.62739 | 29403 ft | 435 kts | 306° |
| 2026-04-30 12:29 | 26.02625 | 45.60328 | 29603 ft | 434 kts | 306° |
| 2026-04-30 12:29 | 26.04737 | 45.57929 | 29801 ft | 433 kts | 306° |
| 2026-04-30 12:29 | 26.06845 | 45.55530 | 29959 ft | 433 kts | 306° |
| 2026-04-30 12:29 | 26.08946 | 45.53139 | 29981 ft | 432 kts | 306° |
| 2026-04-30 12:30 | 26.13146 | 45.48346 | 29958 ft | 433 kts | 306° |
| 2026-04-30 12:30 | 26.17364 | 45.43570 | 29948 ft | 434 kts | 307° |
| 2026-04-30 12:31 | 26.21738 | 45.38917 | 29952 ft | 435 kts | 308° |
| 2026-04-30 12:31 | 26.26128 | 45.34283 | 29951 ft | 435 kts | 308° |
| 2026-04-30 12:32 | 26.30539 | 45.29653 | 29951 ft | 435 kts | 308° |
| 2026-04-30 12:32 | 26.34953 | 45.25038 | 29952 ft | 435 kts | 308° |
| 2026-04-30 12:33 | 26.39357 | 45.20416 | 29951 ft | 435 kts | 308° |
| 2026-04-30 12:33 | 26.43775 | 45.15796 | 29948 ft | 434 kts | 308° |
| 2026-04-30 12:34 | 26.48168 | 45.11177 | 29951 ft | 434 kts | 308° |
| 2026-04-30 12:34 | 26.52568 | 45.06547 | 29945 ft | 434 kts | 308° |
| 2026-04-30 12:35 | 26.56962 | 45.01925 | 29945 ft | 434 kts | 309° |
| 2026-04-30 12:35 | 26.61371 | 44.97305 | 29953 ft | 435 kts | 308° |
| 2026-04-30 12:36 | 26.65024 | 44.93456 | 29952 ft | 434 kts | 308° |
| 2026-04-30 12:36 | 26.69416 | 44.88815 | 29952 ft | 434 kts | 308° |
| 2026-04-30 12:37 | 26.74522 | 44.83422 | 29951 ft | 434 kts | 308° |
| 2026-04-30 12:37 | 26.78905 | 44.78767 | 29946 ft | 434 kts | 308° |
| 2026-04-30 12:38 | 26.82581 | 44.74869 | 29949 ft | 434 kts | 308° |
| 2026-04-30 12:38 | 26.86962 | 44.70215 | 29950 ft | 434 kts | 308° |
| 2026-04-30 12:39 | 26.91341 | 44.65553 | 29949 ft | 435 kts | 308° |
| 2026-04-30 12:39 | 26.95716 | 44.60891 | 29949 ft | 433 kts | 309° |
| 2026-04-30 12:40 | 27.00081 | 44.56232 | 29942 ft | 433 kts | 309° |
| 2026-04-30 12:40 | 27.04446 | 44.51564 | 29943 ft | 433 kts | 309° |
| 2026-04-30 12:41 | 27.08799 | 44.46899 | 29951 ft | 433 kts | 308° |
| 2026-04-30 12:41 | 27.13128 | 44.42260 | 29952 ft | 433 kts | 309° |
| 2026-04-30 12:42 | 27.17486 | 44.37588 | 29950 ft | 433 kts | 309° |
| 2026-04-30 12:42 | 27.21832 | 44.32927 | 29949 ft | 432 kts | 309° |
| 2026-04-30 12:43 | 27.26165 | 44.28255 | 29953 ft | 431 kts | 309° |
| 2026-04-30 12:43 | 27.30497 | 44.23587 | 29946 ft | 432 kts | 309° |
| 2026-04-30 12:44 | 27.34857 | 44.18924 | 29951 ft | 432 kts | 309° |
| 2026-04-30 12:44 | 27.39193 | 44.14255 | 29951 ft | 431 kts | 309° |
| 2026-04-30 12:45 | 27.43520 | 44.09590 | 29950 ft | 431 kts | 309° |
| 2026-04-30 12:45 | 27.47852 | 44.04919 | 29948 ft | 431 kts | 309° |
| 2026-04-30 12:46 | 27.52171 | 44.00253 | 29951 ft | 430 kts | 309° |
| 2026-04-30 12:46 | 27.56501 | 43.95567 | 29952 ft | 431 kts | 309° |
| 2026-04-30 12:47 | 27.60822 | 43.90891 | 29950 ft | 431 kts | 309° |
| 2026-04-30 12:47 | 27.65134 | 43.86213 | 29952 ft | 430 kts | 309° |
| 2026-04-30 12:48 | 27.69440 | 43.81538 | 29952 ft | 430 kts | 309° |
| 2026-04-30 12:48 | 27.73749 | 43.76852 | 29954 ft | 430 kts | 309° |
| 2026-04-30 12:49 | 27.78056 | 43.72165 | 29963 ft | 430 kts | 309° |
| 2026-04-30 12:49 | 27.82361 | 43.67474 | 29970 ft | 430 kts | 309° |
| 2026-04-30 12:50 | 27.86530 | 43.62715 | 29971 ft | 428 kts | 307° |
| 2026-04-30 12:50 | 27.90602 | 43.57805 | 29968 ft | 428 kts | 306° |
| 2026-04-30 12:51 | 27.94685 | 43.52885 | 29970 ft | 429 kts | 306° |
| 2026-04-30 12:51 | 27.98759 | 43.47964 | 29972 ft | 428 kts | 306° |
| 2026-04-30 12:52 | 28.02827 | 43.43053 | 29974 ft | 428 kts | 306° |
| 2026-04-30 12:52 | 28.06904 | 43.38124 | 29979 ft | 427 kts | 306° |
| 2026-04-30 12:53 | 28.10967 | 43.33204 | 29980 ft | 428 kts | 306° |
| 2026-04-30 12:53 | 28.15020 | 43.28291 | 29980 ft | 427 kts | 306° |
| 2026-04-30 12:54 | 28.19067 | 43.23371 | 29980 ft | 427 kts | 306° |
| 2026-04-30 12:54 | 28.23125 | 43.18449 | 29984 ft | 427 kts | 306° |
| 2026-04-30 12:55 | 28.27170 | 43.13531 | 29982 ft | 427 kts | 306° |
| 2026-04-30 12:55 | 28.31220 | 43.08595 | 29980 ft | 427 kts | 306° |
| 2026-04-30 12:56 | 28.35272 | 43.03652 | 29980 ft | 427 kts | 306° |
| 2026-04-30 12:56 | 28.39288 | 42.98750 | 29980 ft | 427 kts | 306° |
| 2026-04-30 12:57 | 28.43334 | 42.93801 | 29981 ft | 427 kts | 306° |
| 2026-04-30 12:57 | 28.47375 | 42.88846 | 29981 ft | 427 kts | 305° |
| 2026-04-30 12:58 | 28.51396 | 42.83885 | 29980 ft | 427 kts | 306° |
| 2026-04-30 12:58 | 28.55427 | 42.78924 | 29982 ft | 427 kts | 306° |
| 2026-04-30 12:59 | 28.59461 | 42.73964 | 29980 ft | 426 kts | 306° |
| 2026-04-30 12:59 | 28.63486 | 42.69002 | 29980 ft | 427 kts | 305° |
| 2026-04-30 13:00 | 28.67521 | 42.64036 | 29980 ft | 428 kts | 306° |
| 2026-04-30 13:00 | 28.71553 | 42.59062 | 29984 ft | 427 kts | 305° |
| 2026-04-30 13:01 | 28.75583 | 42.54081 | 29977 ft | 427 kts | 305° |
| 2026-04-30 13:01 | 28.79610 | 42.49108 | 29979 ft | 427 kts | 306° |
| 2026-04-30 13:02 | 28.83645 | 42.44129 | 29980 ft | 427 kts | 305° |
| 2026-04-30 13:02 | 28.87688 | 42.39156 | 29980 ft | 428 kts | 306° |
| 2026-04-30 13:03 | 28.91725 | 42.34173 | 29979 ft | 427 kts | 305° |
| 2026-04-30 13:03 | 28.95753 | 42.29173 | 29981 ft | 427 kts | 305° |
| 2026-04-30 13:04 | 28.99773 | 42.24173 | 29980 ft | 427 kts | 305° |
| 2026-04-30 13:04 | 29.03770 | 42.19196 | 29981 ft | 427 kts | 305° |
| 2026-04-30 13:05 | 29.07810 | 42.14157 | 29979 ft | 427 kts | 305° |
| 2026-04-30 13:06 | 29.13826 | 42.06638 | 29979 ft | 427 kts | 305° |
| 2026-04-30 13:06 | 29.17833 | 42.01626 | 29981 ft | 427 kts | 305° |
| 2026-04-30 13:07 | 29.21817 | 41.96635 | 29980 ft | 428 kts | 305° |
| 2026-04-30 13:07 | 29.25828 | 41.91608 | 29980 ft | 428 kts | 305° |
| 2026-04-30 13:08 | 29.29841 | 41.86576 | 29981 ft | 427 kts | 305° |
| 2026-04-30 13:08 | 29.33847 | 41.81535 | 29980 ft | 427 kts | 305° |
| 2026-04-30 13:09 | 29.37850 | 41.76492 | 29984 ft | 427 kts | 305° |
| 2026-04-30 13:09 | 29.41852 | 41.71453 | 29989 ft | 427 kts | 305° |
| 2026-04-30 13:10 | 29.45854 | 41.66401 | 29988 ft | 427 kts | 305° |
| 2026-04-30 13:10 | 29.49855 | 41.61349 | 29990 ft | 427 kts | 305° |
| 2026-04-30 13:11 | 29.53847 | 41.56299 | 29991 ft | 427 kts | 305° |
| 2026-04-30 13:11 | 29.57840 | 41.51236 | 29991 ft | 427 kts | 305° |
| 2026-04-30 13:12 | 29.61824 | 41.46186 | 29990 ft | 426 kts | 305° |
| 2026-04-30 13:12 | 29.65807 | 41.41130 | 29984 ft | 426 kts | 305° |
| 2026-04-30 13:13 | 29.71775 | 41.33540 | 29980 ft | 426 kts | 305° |
| 2026-04-30 13:14 | 29.78233 | 41.26388 | 29979 ft | 431 kts | 311° |
| 2026-04-30 13:14 | 29.84961 | 41.19494 | 30020 ft | 431 kts | 311° |
| 2026-04-30 13:15 | 29.91664 | 41.12584 | 30025 ft | 431 kts | 311° |
| 2026-04-30 13:16 | 29.96148 | 41.07978 | 30020 ft | 431 kts | 311° |
| 2026-04-30 13:16 | 30.00594 | 41.03395 | 30009 ft | 432 kts | 311° |
| 2026-04-30 13:17 | 30.07288 | 40.96439 | 30009 ft | 431 kts | 311° |
| 2026-04-30 13:18 | 30.14006 | 40.89516 | 30003 ft | 432 kts | 311° |
| 2026-04-30 13:18 | 30.19953 | 40.83356 | 30005 ft | 430 kts | 311° |
| 2026-04-30 13:19 | 30.24397 | 40.78720 | 30000 ft | 431 kts | 311° |
| 2026-04-30 13:19 | 30.28850 | 40.74072 | 30000 ft | 431 kts | 311° |
| 2026-04-30 13:20 | 30.33309 | 40.69429 | 30000 ft | 431 kts | 311° |
| 2026-04-30 13:20 | 30.37773 | 40.64790 | 30000 ft | 431 kts | 311° |
| 2026-04-30 13:21 | 30.42272 | 40.60173 | 30000 ft | 432 kts | 312° |
| 2026-04-30 13:22 | 30.49033 | 40.53271 | 29999 ft | 431 kts | 312° |
| 2026-04-30 13:22 | 30.55759 | 40.46381 | 30001 ft | 432 kts | 312° |
| 2026-04-30 13:23 | 30.62510 | 40.39445 | 30000 ft | 432 kts | 312° |
| 2026-04-30 13:24 | 30.71507 | 40.30195 | 30002 ft | 432 kts | 311° |
| 2026-04-30 13:25 | 30.80478 | 40.20924 | 30000 ft | 431 kts | 312° |
| 2026-04-30 13:26 | 30.91678 | 40.09320 | 30000 ft | 431 kts | 312° |
| 2026-04-30 13:28 | 31.02843 | 39.97706 | 29980 ft | 431 kts | 312° |
| 2026-04-30 13:28 | 31.09555 | 39.90701 | 29986 ft | 431 kts | 312° |
| 2026-04-30 13:29 | 31.18498 | 39.81370 | 29990 ft | 431 kts | 312° |
| 2026-04-30 13:31 | 31.29664 | 39.69679 | 30003 ft | 431 kts | 312° |
| 2026-04-30 13:32 | 31.40819 | 39.57951 | 30001 ft | 430 kts | 312° |
| 2026-04-30 13:33 | 31.49726 | 39.48557 | 30001 ft | 431 kts | 312° |
| 2026-04-30 13:34 | 31.56366 | 39.41537 | 30010 ft | 430 kts | 312° |
| 2026-04-30 13:35 | 31.65265 | 39.32112 | 30003 ft | 431 kts | 312° |
| 2026-04-30 13:36 | 31.74172 | 39.22655 | 30017 ft | 431 kts | 312° |
| 2026-04-30 13:36 | 31.81066 | 39.15840 | 30018 ft | 439 kts | 323° |
| 2026-04-30 13:37 | 31.89292 | 39.10936 | 30014 ft | 442 kts | 328° |
| 2026-04-30 13:38 | 31.97539 | 39.06090 | 30017 ft | 442 kts | 327° |
| 2026-04-30 13:39 | 32.08544 | 38.99589 | 30013 ft | 443 kts | 329° |
| 2026-04-30 13:40 | 32.16825 | 38.94703 | 30016 ft | 443 kts | 329° |
| 2026-04-30 13:40 | 32.22338 | 38.91445 | 30030 ft | 443 kts | 329° |
| 2026-04-30 13:41 | 32.27821 | 38.88200 | 30028 ft | 443 kts | 329° |
| 2026-04-30 13:41 | 32.33370 | 38.84911 | 30029 ft | 443 kts | 329° |
| 2026-04-30 13:42 | 32.38855 | 38.81656 | 30023 ft | 444 kts | 329° |
| 2026-04-30 13:42 | 32.47139 | 38.76724 | 30020 ft | 444 kts | 329° |
| 2026-04-30 13:43 | 32.52673 | 38.73432 | 30023 ft | 444 kts | 329° |
| 2026-04-30 13:43 | 32.58262 | 38.70272 | 30021 ft | 448 kts | 336° |
| 2026-04-30 13:44 | 32.61314 | 38.69359 | 30001 ft | 454 kts | 348° |
| 2026-04-30 13:44 | 32.64477 | 38.69083 | 30019 ft | 457 kts | 354° |
| 2026-04-30 13:44 | 32.70838 | 38.68862 | 30014 ft | 457 kts | 354° |
| 2026-04-30 13:45 | 32.80379 | 38.68451 | 30008 ft | 457 kts | 354° |
| 2026-04-30 13:46 | 32.86730 | 38.68156 | 30012 ft | 457 kts | 354° |
| 2026-04-30 13:46 | 32.93050 | 38.67860 | 30013 ft | 457 kts | 354° |
| 2026-04-30 13:47 | 32.99408 | 38.67552 | 30020 ft | 457 kts | 354° |
| 2026-04-30 13:47 | 33.05769 | 38.67249 | 30008 ft | 457 kts | 354° |
| 2026-04-30 13:48 | 33.12125 | 38.66951 | 30007 ft | 457 kts | 354° |
| 2026-04-30 13:48 | 33.18479 | 38.66651 | 30019 ft | 457 kts | 354° |
| 2026-04-30 13:49 | 33.24839 | 38.66345 | 30018 ft | 457 kts | 355° |
| 2026-04-30 13:49 | 33.31197 | 38.66044 | 30023 ft | 457 kts | 355° |
| 2026-04-30 13:50 | 33.37561 | 38.65798 | 30020 ft | 458 kts | 355° |
| 2026-04-30 13:50 | 33.47096 | 38.65292 | 30028 ft | 455 kts | 349° |
| 2026-04-30 13:51 | 33.50163 | 38.64421 | 30027 ft | 452 kts | 338° |
| 2026-04-30 13:51 | 33.53082 | 38.63030 | 30040 ft | 451 kts | 334° |
| 2026-04-30 13:51 | 33.58835 | 38.60035 | 30039 ft | 451 kts | 334° |
| 2026-04-30 13:52 | 33.64618 | 38.57076 | 30043 ft | 452 kts | 334° |
| 2026-04-30 13:52 | 33.70414 | 38.54144 | 30044 ft | 452 kts | 335° |
| 2026-04-30 13:53 | 33.76218 | 38.51198 | 30041 ft | 453 kts | 334° |
| 2026-04-30 13:53 | 33.82027 | 38.48247 | 30044 ft | 453 kts | 335° |
| 2026-04-30 13:54 | 33.87830 | 38.45285 | 30042 ft | 453 kts | 335° |
| 2026-04-30 13:54 | 33.93652 | 38.42314 | 30040 ft | 454 kts | 335° |
| 2026-04-30 13:55 | 33.99473 | 38.39358 | 30042 ft | 454 kts | 335° |
| 2026-04-30 13:55 | 34.05290 | 38.36386 | 30038 ft | 454 kts | 335° |
| 2026-04-30 13:56 | 34.11113 | 38.33403 | 30036 ft | 454 kts | 335° |
| 2026-04-30 13:56 | 34.16932 | 38.30425 | 30040 ft | 454 kts | 335° |
| 2026-04-30 13:57 | 34.22760 | 38.27425 | 30040 ft | 454 kts | 335° |
| 2026-04-30 13:57 | 34.28581 | 38.24429 | 30041 ft | 455 kts | 335° |
| 2026-04-30 13:58 | 34.37305 | 38.19928 | 30041 ft | 454 kts | 335° |
| 2026-04-30 13:59 | 34.43119 | 38.16920 | 30041 ft | 454 kts | 335° |
| 2026-04-30 13:59 | 34.47950 | 38.14423 | 30043 ft | 454 kts | 335° |
| 2026-04-30 14:00 | 34.53749 | 38.11398 | 30043 ft | 453 kts | 334° |
| 2026-04-30 14:00 | 34.62384 | 38.06699 | 30039 ft | 453 kts | 334° |
| 2026-04-30 14:01 | 34.68132 | 38.03576 | 30042 ft | 453 kts | 334° |
| 2026-04-30 14:01 | 34.73883 | 38.00449 | 30022 ft | 452 kts | 334° |
| 2026-04-30 14:02 | 34.79623 | 37.97326 | 30030 ft | 453 kts | 334° |
| 2026-04-30 14:02 | 34.85377 | 37.94193 | 30020 ft | 453 kts | 334° |
| 2026-04-30 14:03 | 34.91124 | 37.91056 | 30027 ft | 452 kts | 334° |
| 2026-04-30 14:03 | 34.96871 | 37.87915 | 30019 ft | 452 kts | 334° |
| 2026-04-30 14:04 | 35.02601 | 37.84778 | 30022 ft | 452 kts | 334° |
| 2026-04-30 14:04 | 35.08335 | 37.81636 | 30022 ft | 451 kts | 334° |
| 2026-04-30 14:05 | 35.14034 | 37.78509 | 30019 ft | 451 kts | 333° |
| 2026-04-30 14:05 | 35.19755 | 37.75360 | 30014 ft | 451 kts | 333° |
| 2026-04-30 14:06 | 35.28332 | 37.70633 | 30012 ft | 450 kts | 333° |
| 2026-04-30 14:07 | 35.36896 | 37.65902 | 30023 ft | 450 kts | 333° |
| 2026-04-30 14:07 | 35.39752 | 37.64321 | 30135 ft | 451 kts | 333° |
| 2026-04-30 14:08 | 35.45458 | 37.61160 | 30769 ft | 449 kts | 333° |
| 2026-04-30 14:08 | 35.48311 | 37.59578 | 31070 ft | 449 kts | 333° |
| 2026-04-30 14:08 | 35.54004 | 37.56416 | 31573 ft | 450 kts | 333° |
| 2026-04-30 14:09 | 35.56858 | 37.54829 | 31834 ft | 450 kts | 333° |
| 2026-04-30 14:09 | 35.59713 | 37.53241 | 32028 ft | 451 kts | 333° |
| 2026-04-30 14:10 | 35.68278 | 37.48468 | 32028 ft | 450 kts | 333° |
| 2026-04-30 14:10 | 35.74159 | 37.45731 | 32022 ft | 451 kts | 337° |
| 2026-04-30 14:11 | 35.79757 | 37.42361 | 32019 ft | 447 kts | 324° |
| 2026-04-30 14:11 | 35.85071 | 37.38429 | 32020 ft | 450 kts | 330° |
| 2026-04-30 14:12 | 35.90758 | 37.35074 | 32019 ft | 451 kts | 333° |
| 2026-04-30 14:12 | 35.96437 | 37.31908 | 32019 ft | 451 kts | 334° |
| 2026-04-30 14:13 | 36.02180 | 37.28791 | 32020 ft | 451 kts | 334° |
| 2026-04-30 14:13 | 36.07904 | 37.25669 | 32021 ft | 450 kts | 334° |
| 2026-04-30 14:14 | 36.13623 | 37.22537 | 32021 ft | 450 kts | 334° |
| 2026-04-30 14:14 | 36.19153 | 37.18967 | 32022 ft | 448 kts | 327° |
| 2026-04-30 14:15 | 36.24413 | 37.14839 | 32020 ft | 447 kts | 323° |
| 2026-04-30 14:15 | 36.29446 | 37.10314 | 32019 ft | 447 kts | 321° |
| 2026-04-30 14:16 | 36.34414 | 37.05688 | 32019 ft | 447 kts | 321° |
| 2026-04-30 14:16 | 36.39387 | 37.01046 | 32010 ft | 447 kts | 321° |
| 2026-04-30 14:17 | 36.44340 | 36.96393 | 32007 ft | 447 kts | 321° |
| 2026-04-30 14:17 | 36.49298 | 36.91728 | 32001 ft | 447 kts | 321° |
| 2026-04-30 14:18 | 36.54254 | 36.87060 | 31989 ft | 447 kts | 320° |
| 2026-04-30 14:18 | 36.61680 | 36.80048 | 31987 ft | 447 kts | 320° |
| 2026-04-30 14:19 | 36.69109 | 36.73019 | 31983 ft | 447 kts | 320° |
| 2026-04-30 14:20 | 36.74055 | 36.68328 | 31979 ft | 447 kts | 320° |
| 2026-04-30 14:20 | 36.81467 | 36.61252 | 31976 ft | 447 kts | 320° |
| 2026-04-30 14:21 | 36.86370 | 36.56488 | 31972 ft | 446 kts | 320° |
| 2026-04-30 14:22 | 36.93717 | 36.49350 | 31969 ft | 446 kts | 320° |
| 2026-04-30 14:22 | 37.01034 | 36.42242 | 31974 ft | 446 kts | 320° |
| 2026-04-30 14:23 | 37.10812 | 36.32731 | 31982 ft | 445 kts | 320° |
| 2026-04-30 14:24 | 37.18139 | 36.25580 | 31984 ft | 444 kts | 320° |
| 2026-04-30 14:25 | 37.27870 | 36.16057 | 31971 ft | 443 kts | 320° |
| 2026-04-30 14:26 | 37.35157 | 36.08904 | 31970 ft | 442 kts | 319° |
| 2026-04-30 14:27 | 37.42430 | 36.01745 | 31971 ft | 443 kts | 319° |
| 2026-04-30 14:27 | 37.47278 | 35.96965 | 31970 ft | 442 kts | 319° |
| 2026-04-30 14:28 | 37.54543 | 35.89784 | 31982 ft | 442 kts | 319° |
| 2026-04-30 14:28 | 37.59379 | 35.84993 | 31979 ft | 442 kts | 319° |
| 2026-04-30 14:29 | 37.68218 | 35.76218 | 31990 ft | 441 kts | 319° |
| 2026-04-30 14:31 | 37.81045 | 35.63435 | 31999 ft | 441 kts | 319° |
| 2026-04-30 14:31 | 37.88279 | 35.56199 | 31999 ft | 441 kts | 319° |
| 2026-04-30 14:32 | 37.95485 | 35.49023 | 32003 ft | 441 kts | 319° |
| 2026-04-30 14:33 | 38.00284 | 35.44161 | 32004 ft | 442 kts | 319° |
| 2026-04-30 14:33 | 38.07484 | 35.36901 | 32002 ft | 439 kts | 319° |
| 2026-04-30 14:34 | 38.12270 | 35.32069 | 32002 ft | 439 kts | 319° |
| 2026-04-30 14:34 | 38.17055 | 35.27232 | 32012 ft | 440 kts | 319° |
| 2026-04-30 14:35 | 38.24212 | 35.19958 | 32011 ft | 439 kts | 318° |
| 2026-04-30 14:36 | 38.28978 | 35.15114 | 32017 ft | 439 kts | 318° |
| 2026-04-30 14:36 | 38.33756 | 35.10255 | 32020 ft | 439 kts | 318° |
| 2026-04-30 14:36 | 38.36143 | 35.07823 | 32138 ft | 440 kts | 318° |
| 2026-04-30 14:37 | 38.38528 | 35.05394 | 32415 ft | 438 kts | 318° |
| 2026-04-30 14:37 | 38.40910 | 35.02972 | 32674 ft | 438 kts | 318° |
| 2026-04-30 14:37 | 38.43290 | 35.00552 | 32923 ft | 438 kts | 318° |
| 2026-04-30 14:37 | 38.45673 | 34.98127 | 33175 ft | 437 kts | 318° |
| 2026-04-30 14:38 | 38.48050 | 34.95710 | 33376 ft | 437 kts | 318° |
| 2026-04-30 14:38 | 38.50426 | 34.93289 | 33580 ft | 436 kts | 318° |
| 2026-04-30 14:38 | 38.52796 | 34.90868 | 33773 ft | 436 kts | 318° |
| 2026-04-30 14:38 | 38.55159 | 34.88456 | 33982 ft | 435 kts | 318° |
| 2026-04-30 14:39 | 38.57523 | 34.86038 | 34055 ft | 436 kts | 318° |
| 2026-04-30 14:39 | 38.62257 | 34.81198 | 34028 ft | 435 kts | 318° |
| 2026-04-30 14:40 | 38.69334 | 34.73936 | 34022 ft | 435 kts | 318° |
| 2026-04-30 14:40 | 38.74050 | 34.69085 | 34017 ft | 434 kts | 318° |
| 2026-04-30 14:41 | 38.78726 | 34.64269 | 34027 ft | 434 kts | 318° |
| 2026-04-30 14:41 | 38.83437 | 34.59416 | 34021 ft | 434 kts | 318° |
| 2026-04-30 14:42 | 38.88136 | 34.54553 | 34015 ft | 434 kts | 317° |
| 2026-04-30 14:42 | 38.92072 | 34.50484 | 34023 ft | 433 kts | 317° |
| 2026-04-30 14:43 | 38.96761 | 34.45622 | 34017 ft | 432 kts | 317° |
| 2026-04-30 14:43 | 39.01445 | 34.40763 | 34023 ft | 432 kts | 317° |
| 2026-04-30 14:44 | 39.06116 | 34.35899 | 34023 ft | 432 kts | 317° |
| 2026-04-30 14:44 | 39.10786 | 34.31031 | 34021 ft | 431 kts | 317° |
| 2026-04-30 14:45 | 39.15455 | 34.26162 | 34023 ft | 431 kts | 317° |
| 2026-04-30 14:45 | 39.20115 | 34.21306 | 34023 ft | 430 kts | 317° |
| 2026-04-30 14:46 | 39.24739 | 34.16473 | 34036 ft | 430 kts | 317° |
| 2026-04-30 14:46 | 39.29374 | 34.11616 | 34031 ft | 429 kts | 317° |
| 2026-04-30 14:47 | 39.34015 | 34.06742 | 34033 ft | 429 kts | 317° |
| 2026-04-30 14:47 | 39.38648 | 34.01882 | 34037 ft | 428 kts | 316° |
| 2026-04-30 14:48 | 39.43269 | 33.97024 | 34027 ft | 428 kts | 316° |
| 2026-04-30 14:48 | 39.47886 | 33.92165 | 34032 ft | 427 kts | 316° |
| 2026-04-30 14:49 | 39.52494 | 33.87306 | 34031 ft | 427 kts | 316° |
| 2026-04-30 14:49 | 39.57087 | 33.82434 | 34029 ft | 426 kts | 316° |
| 2026-04-30 14:50 | 39.63974 | 33.75132 | 34032 ft | 426 kts | 316° |
| 2026-04-30 14:51 | 39.70862 | 33.67812 | 34028 ft | 426 kts | 316° |
| 2026-04-30 14:52 | 39.77695 | 33.60521 | 34027 ft | 426 kts | 316° |
| 2026-04-30 14:52 | 39.84553 | 33.53164 | 34024 ft | 426 kts | 316° |
| 2026-04-30 14:53 | 39.91419 | 33.45805 | 34023 ft | 426 kts | 316° |
| 2026-04-30 14:54 | 40.00567 | 33.35964 | 34022 ft | 426 kts | 316° |
| 2026-04-30 14:55 | 40.07415 | 33.28609 | 34023 ft | 425 kts | 316° |
| 2026-04-30 14:56 | 40.16532 | 33.18798 | 34026 ft | 424 kts | 315° |
| 2026-04-30 14:57 | 40.23347 | 33.11413 | 34019 ft | 423 kts | 315° |
| 2026-04-30 14:58 | 40.32583 | 33.01796 | 34016 ft | 423 kts | 314° |
| 2026-04-30 14:58 | 40.38860 | 32.93745 | 34022 ft | 422 kts | 312° |
| 2026-04-30 15:00 | 40.49852 | 32.81012 | 34035 ft | 423 kts | 314° |
| 2026-04-30 15:01 | 40.58696 | 32.70796 | 34025 ft | 423 kts | 314° |
| 2026-04-30 15:01 | 40.65326 | 32.63128 | 34027 ft | 422 kts | 314° |
| 2026-04-30 15:02 | 40.69718 | 32.58037 | 34034 ft | 420 kts | 314° |
| 2026-04-30 15:03 | 40.80629 | 32.45314 | 34047 ft | 419 kts | 313° |
| 2026-04-30 15:04 | 40.91521 | 32.32524 | 34046 ft | 419 kts | 313° |
| 2026-04-30 15:06 | 41.02376 | 32.19750 | 34055 ft | 417 kts | 313° |
| 2026-04-30 15:07 | 41.11036 | 32.09550 | 34073 ft | 416 kts | 313° |
| 2026-04-30 15:08 | 41.19653 | 31.99357 | 34078 ft | 414 kts | 313° |
| 2026-04-30 15:09 | 41.30342 | 31.86637 | 34088 ft | 412 kts | 312° |
| 2026-04-30 15:10 | 41.38862 | 31.76462 | 34085 ft | 412 kts | 312° |
| 2026-04-30 15:11 | 41.51593 | 31.61171 | 34079 ft | 410 kts | 312° |
| 2026-04-30 15:13 | 41.62158 | 31.48427 | 34079 ft | 410 kts | 312° |
| 2026-04-30 15:14 | 41.76958 | 31.30483 | 34093 ft | 410 kts | 312° |
| 2026-04-30 15:17 | 41.95956 | 31.07285 | 34091 ft | 409 kts | 312° |
| 2026-04-30 15:19 | 42.12735 | 30.86677 | 34101 ft | 407 kts | 311° |
| 2026-04-30 17:39 | 54.96891 | 17.04978 | 34378 ft | 411 kts | 323° |
| 2026-04-30 17:42 | 55.16760 | 16.69416 | 34390 ft | 410 kts | 322° |
| 2026-04-30 17:43 | 55.26691 | 16.51525 | 34389 ft | 408 kts | 324° |
| 2026-04-30 17:44 | 55.40500 | 16.35582 | 34389 ft | 390 kts | 342° |
| 2026-04-30 17:47 | 55.62604 | 16.16821 | 34390 ft | 392 kts | 340° |
| 2026-04-30 17:48 | 55.79778 | 16.02117 | 34380 ft | 392 kts | 340° |
| 2026-04-30 17:50 | 55.99423 | 15.85096 | 34380 ft | 393 kts | 340° |
| 2026-04-30 17:52 | 56.14159 | 15.72170 | 34381 ft | 393 kts | 340° |
| 2026-04-30 17:54 | 56.36303 | 15.52554 | 34381 ft | 395 kts | 339° |
| 2026-04-30 17:56 | 56.56029 | 15.34859 | 34380 ft | 397 kts | 338° |
| 2026-04-30 17:58 | 56.70905 | 15.21343 | 34381 ft | 399 kts | 338° |
| 2026-04-30 18:00 | 56.90792 | 15.03166 | 34380 ft | 400 kts | 337° |
| 2026-04-30 18:01 | 57.03228 | 14.91664 | 34381 ft | 402 kts | 337° |
| 2026-04-30 18:02 | 57.18241 | 14.77660 | 34380 ft | 404 kts | 335° |
| 2026-04-30 18:04 | 57.33271 | 14.63517 | 34380 ft | 404 kts | 335° |
| 2026-04-30 18:06 | 57.53314 | 14.44451 | 34380 ft | 405 kts | 334° |
| 2026-04-30 18:08 | 57.70857 | 14.27561 | 34380 ft | 406 kts | 334° |
| 2026-04-30 18:10 | 57.90873 | 14.08076 | 34380 ft | 406 kts | 334° |
| 2026-04-30 18:11 | 58.08397 | 13.90801 | 34381 ft | 406 kts | 333° |
| 2026-04-30 18:13 | 58.20878 | 13.78383 | 34370 ft | 406 kts | 333° |
| 2026-04-30 18:14 | 58.32529 | 13.66704 | 34370 ft | 406 kts | 333° |
| 2026-04-30 18:15 | 58.47506 | 13.51528 | 34357 ft | 406 kts | 333° |
| 2026-04-30 18:16 | 58.57482 | 13.41359 | 34364 ft | 407 kts | 333° |
| 2026-04-30 18:17 | 58.62474 | 13.36242 | 34361 ft | 407 kts | 333° |
| 2026-04-30 18:18 | 58.69956 | 13.28552 | 34360 ft | 406 kts | 333° |
| 2026-04-30 18:18 | 58.74943 | 13.23420 | 34362 ft | 406 kts | 333° |
| 2026-04-30 18:19 | 58.79922 | 13.18254 | 34359 ft | 406 kts | 332° |
| 2026-04-30 18:19 | 58.84895 | 13.13088 | 34350 ft | 406 kts | 332° |
| 2026-04-30 18:20 | 58.89816 | 13.07959 | 34177 ft | 391 kts | 332° |
| 2026-04-30 18:20 | 58.92184 | 13.05480 | 33740 ft | 385 kts | 332° |
| 2026-04-30 18:20 | 58.94527 | 13.03025 | 33240 ft | 381 kts | 332° |
| 2026-04-30 18:20 | 58.96846 | 13.00591 | 32730 ft | 377 kts | 332° |
| 2026-04-30 18:21 | 58.99136 | 12.98180 | 32240 ft | 373 kts | 332° |
| 2026-04-30 18:21 | 59.01408 | 12.95791 | 31746 ft | 369 kts | 332° |
| 2026-04-30 18:21 | 59.03650 | 12.93431 | 31262 ft | 365 kts | 332° |
| 2026-04-30 18:21 | 59.05880 | 12.91080 | 30775 ft | 362 kts | 332° |
| 2026-04-30 18:22 | 59.08079 | 12.88760 | 30292 ft | 358 kts | 332° |
| 2026-04-30 18:22 | 59.12407 | 12.84174 | 29339 ft | 351 kts | 332° |
| 2026-04-30 18:22 | 59.14540 | 12.81909 | 28816 ft | 348 kts | 332° |
| 2026-04-30 18:23 | 59.16659 | 12.79658 | 28313 ft | 346 kts | 332° |
| 2026-04-30 18:23 | 59.18766 | 12.77415 | 27799 ft | 344 kts | 332° |
| 2026-04-30 18:23 | 59.20857 | 12.75182 | 27293 ft | 342 kts | 332° |
| 2026-04-30 18:23 | 59.22937 | 12.72959 | 26795 ft | 340 kts | 332° |
| 2026-04-30 18:24 | 59.27028 | 12.68584 | 25833 ft | 335 kts | 332° |
| 2026-04-30 18:24 | 59.29088 | 12.66377 | 25339 ft | 333 kts | 332° |
| 2026-04-30 18:24 | 59.31086 | 12.64233 | 24864 ft | 331 kts | 331° |
| 2026-04-30 18:25 | 59.33097 | 12.62073 | 24386 ft | 329 kts | 331° |
| 2026-04-30 18:25 | 59.37082 | 12.57783 | 23424 ft | 325 kts | 331° |
| 2026-04-30 18:25 | 59.39055 | 12.55653 | 22955 ft | 323 kts | 331° |
| 2026-04-30 18:26 | 59.42965 | 12.51427 | 22075 ft | 319 kts | 331° |
| 2026-04-30 18:26 | 59.44912 | 12.49316 | 21767 ft | 318 kts | 330° |
| 2026-04-30 18:26 | 59.46847 | 12.47217 | 21500 ft | 317 kts | 330° |
| 2026-04-30 18:27 | 59.50699 | 12.43026 | 20984 ft | 315 kts | 330° |
| 2026-04-30 18:27 | 59.52610 | 12.40947 | 20672 ft | 312 kts | 330° |
| 2026-04-30 18:28 | 59.56370 | 12.36844 | 19986 ft | 307 kts | 330° |
| 2026-04-30 18:28 | 59.58233 | 12.34805 | 19634 ft | 305 kts | 330° |
| 2026-04-30 18:28 | 59.61934 | 12.30750 | 18943 ft | 303 kts | 330° |
| 2026-04-30 18:29 | 59.63771 | 12.28737 | 18613 ft | 301 kts | 330° |
| 2026-04-30 18:29 | 59.69238 | 12.22724 | 17626 ft | 298 kts | 329° |
| 2026-04-30 18:30 | 59.72844 | 12.18734 | 17001 ft | 299 kts | 329° |
| 2026-04-30 18:30 | 59.76471 | 12.14722 | 16434 ft | 298 kts | 329° |
| 2026-04-30 18:31 | 59.78278 | 12.12720 | 16164 ft | 296 kts | 329° |
| 2026-04-30 18:31 | 59.81864 | 12.08736 | 15607 ft | 294 kts | 329° |
| 2026-04-30 18:32 | 59.85422 | 12.04777 | 15014 ft | 291 kts | 329° |
| 2026-04-30 18:32 | 59.87188 | 12.02809 | 14711 ft | 291 kts | 329° |
| 2026-04-30 18:32 | 59.90710 | 11.98871 | 14109 ft | 289 kts | 329° |
| 2026-04-30 18:33 | 59.92457 | 11.96913 | 13795 ft | 287 kts | 329° |
| 2026-04-30 18:33 | 59.95923 | 11.93026 | 13212 ft | 285 kts | 329° |
| 2026-04-30 18:33 | 59.97625 | 11.91113 | 12906 ft | 283 kts | 329° |
| 2026-04-30 18:34 | 59.99347 | 11.89176 | 12605 ft | 283 kts | 329° |
| 2026-04-30 18:34 | 60.02774 | 11.85316 | 12003 ft | 280 kts | 329° |
| 2026-04-30 18:34 | 60.04470 | 11.83403 | 11694 ft | 279 kts | 329° |
| 2026-04-30 18:35 | 60.06159 | 11.81492 | 11413 ft | 279 kts | 329° |
| 2026-04-30 18:35 | 60.07845 | 11.79582 | 11121 ft | 278 kts | 329° |
| 2026-04-30 18:35 | 60.09527 | 11.77663 | 10810 ft | 278 kts | 329° |
| 2026-04-30 18:36 | 60.12877 | 11.73842 | 10206 ft | 278 kts | 329° |
| 2026-04-30 18:36 | 60.14561 | 11.71926 | 9911 ft | 278 kts | 329° |
| 2026-04-30 18:36 | 60.17927 | 11.68096 | 9309 ft | 277 kts | 329° |
| 2026-04-30 18:37 | 60.19603 | 11.66184 | 9021 ft | 277 kts | 329° |
| 2026-04-30 18:37 | 60.21279 | 11.64270 | 8710 ft | 277 kts | 328° |
| 2026-04-30 18:37 | 60.22951 | 11.62354 | 8405 ft | 277 kts | 328° |
| 2026-04-30 18:37 | 60.24620 | 11.60440 | 8102 ft | 275 kts | 328° |
| 2026-04-30 18:38 | 60.26278 | 11.58539 | 7813 ft | 274 kts | 329° |
| 2026-04-30 18:38 | 60.27932 | 11.56640 | 7505 ft | 273 kts | 329° |
| 2026-04-30 18:38 | 60.29585 | 11.54743 | 7214 ft | 272 kts | 329° |
| 2026-04-30 18:38 | 60.31229 | 11.52856 | 6920 ft | 271 kts | 329° |
| 2026-04-30 18:39 | 60.32851 | 11.50991 | 6608 ft | 266 kts | 329° |
| 2026-04-30 18:39 | 60.34450 | 11.49154 | 6301 ft | 262 kts | 329° |
| 2026-04-30 18:39 | 60.36027 | 11.47348 | 5998 ft | 259 kts | 329° |
| 2026-04-30 18:39 | 60.37589 | 11.45562 | 5700 ft | 257 kts | 329° |
| 2026-04-30 18:40 | 60.39129 | 11.43796 | 5395 ft | 253 kts | 328° |
| 2026-04-30 18:40 | 60.40612 | 11.41923 | 5094 ft | 249 kts | 318° |
| 2026-04-30 18:40 | 60.41622 | 11.39211 | 4878 ft | 237 kts | 290° |
| 2026-04-30 18:40 | 60.41760 | 11.36002 | 4727 ft | 229 kts | 259° |
| 2026-04-30 18:41 | 60.41344 | 11.32881 | 4601 ft | 229 kts | 253° |
| 2026-04-30 18:41 | 60.40892 | 11.29801 | 4491 ft | 228 kts | 254° |
| 2026-04-30 18:41 | 60.40467 | 11.26792 | 4456 ft | 213 kts | 252° |
| 2026-04-30 18:41 | 60.39775 | 11.24254 | 4453 ft | 207 kts | 225° |
| 2026-04-30 18:42 | 60.38559 | 11.22704 | 4348 ft | 209 kts | 204° |
| 2026-04-30 18:42 | 60.35770 | 11.21120 | 3864 ft | 204 kts | 195° |
| 2026-04-30 18:42 | 60.34430 | 11.20447 | 3647 ft | 194 kts | 197° |
| 2026-04-30 18:45 | 60.23599 | 11.14255 | 1430 ft | 132 kts | 196° |
| 2026-04-30 18:45 | 60.22713 | 11.13742 | 1252 ft | 133 kts | 196° |
| 2026-04-30 18:45 | 60.21827 | 11.13233 | 1085 ft | 132 kts | 196° |
| 2026-04-30 18:46 | 60.20942 | 11.12720 | 878 ft | 133 kts | 195° |
| 2026-04-30 18:46 | 60.20049 | 11.12212 | 720 ft | 134 kts | 196° |
| 2026-04-30 18:46 | 60.19242 | 11.11744 | 684 ft | 94 kts | 197° |
| 2026-04-30 18:46 | 60.18817 | 11.11494 | 683 ft | 39 kts | 195° |
| 2026-04-30 18:47 | 60.18559 | 11.11327 | 684 ft | 40 kts | 208° |
| 2026-04-30 18:47 | 60.18452 | 11.11180 | 688 ft | 0 kts | 222° |
| 2026-04-30 18:47 | 60.18438 | 11.11084 | 685 ft | 14 kts | 264° |
| 2026-04-30 18:47 | 60.18487 | 11.10922 | 682 ft | 16 kts | 354° |
| 2026-04-30 18:48 | 60.18601 | 11.10982 | 684 ft | 18 kts | 15° |
| 2026-04-30 18:48 | 60.18725 | 11.11052 | 685 ft | 19 kts | 9° |
| 2026-04-30 18:48 | 60.18855 | 11.11125 | 681 ft | 20 kts | 16° |
| 2026-04-30 18:48 | 60.18990 | 11.11207 | 688 ft | 21 kts | 12° |
| 2026-04-30 18:49 | 60.19130 | 11.11280 | 685 ft | 21 kts | 17° |
| 2026-04-30 18:49 | 60.19274 | 11.11365 | 688 ft | 22 kts | 17° |
| 2026-04-30 18:49 | 60.19391 | 11.11389 | 686 ft | 13 kts | 319° |
| 2026-04-30 18:49 | 60.19418 | 11.11239 | 685 ft | 7 kts | 286° |
| 2026-04-30 18:50 | 60.19422 | 11.11210 | 682 ft | 0 kts | 286° |
| 2026-04-30 18:51 | 60.19422 | 11.11205 | 688 ft | 1 kts | 285° |
| 2026-04-30 18:51 | 60.19427 | 11.11172 | 682 ft | 4 kts | 288° |
| 2026-04-30 18:51 | 60.19437 | 11.11103 | 688 ft | 6 kts | 288° |
| 2026-04-30 18:52 | 60.19453 | 11.10998 | 684 ft | 9 kts | 286° |
| 2026-04-30 18:52 | 60.19471 | 11.10861 | 686 ft | 11 kts | 286° |
| 2026-04-30 18:52 | 60.19480 | 11.10795 | 688 ft | 2 kts | 285° |
| 2026-04-30 18:52 | 60.19483 | 11.10765 | 686 ft | 3 kts | 285° |
| 2026-04-30 18:53 | 60.19486 | 11.10719 | 689 ft | 4 kts | 259° |
| 2026-04-30 18:53 | 60.19481 | 11.10707 | 684 ft | 1 kts | 220° |
| 2026-04-30 18:53 | 60.19464 | 11.10689 | 688 ft | 3 kts | 195° |
| 2026-04-30 18:53 | 60.19435 | 11.10673 | 684 ft | 5 kts | 197° |
| 2026-04-30 18:54 | 60.19431 | 11.10671 | 690 ft | 0 kts | 197° |
| 2026-04-30 18:54 | 60.19429 | 11.10670 | 690 ft | 1 kts | 197° |
| 2026-04-30 18:55 | 60.19411 | 11.10659 | 689 ft | 4 kts | 198° |
| 2026-04-30 18:55 | 60.19390 | 11.10647 | 690 ft | 0 kts | 197° |